sensor_id;sensor_type;location;lat;lon;timestamp;temperature;humidity
72883;DHT22;61017;37.812;-122.286;2023-01-01T00:01:08;16.20;92.70
72883;DHT22;61017;37.812;-122.286;2023-01-01T00:02:58;16.20;92.90
72883;DHT22;61017;37.812;-122.286;2023-01-01T00:04:48;16.30;92.80
72883;DHT22;61017;37.812;-122.286;2023-01-01T00:06:39;16.30;92.70
72883;DHT22;61017;37.812;-122.286;2023-01-01T00:08:29;16.30;92.70
72883;DHT22;61017;37.812;-122.286;2023-01-01T00:10:19;16.30;92.50
72883;DHT22;61017;37.812;-122.286;2023-01-01T00:12:09;16.30;92.70
72883;DHT22;61017;37.812;-122.286;2023-01-01T00:13:59;16.30;92.60
72883;DHT22;61017;37.812;-122.286;2023-01-01T00:15:49;16.30;92.30
72883;DHT22;61017;37.812;-122.286;2023-01-01T00:17:40;16.30;92.50
72883;DHT22;61017;37.812;-122.286;2023-01-01T00:19:30;16.20;92.80
72883;DHT22;61017;37.812;-122.286;2023-01-01T00:21:20;16.20;92.20
72883;DHT22;61017;37.812;-122.286;2023-01-01T00:23:10;16.00;92.50
72883;DHT22;61017;37.812;-122.286;2023-01-01T00:25:00;16.00;92.40
72883;DHT22;61017;37.812;-122.286;2023-01-01T00:26:50;16.00;92.50
72883;DHT22;61017;37.812;-122.286;2023-01-01T00:28:41;15.90;92.50
72883;DHT22;61017;37.812;-122.286;2023-01-01T00:30:31;15.90;92.80
72883;DHT22;61017;37.812;-122.286;2023-01-01T00:32:21;15.90;92.60
72883;DHT22;61017;37.812;-122.286;2023-01-01T00:34:11;15.90;92.50
72883;DHT22;61017;37.812;-122.286;2023-01-01T00:36:08;16.00;92.50
72883;DHT22;61017;37.812;-122.286;2023-01-01T00:37:58;16.00;92.30
72883;DHT22;61017;37.812;-122.286;2023-01-01T00:39:48;15.90;92.50
72883;DHT22;61017;37.812;-122.286;2023-01-01T00:41:38;16.00;92.70
72883;DHT22;61017;37.812;-122.286;2023-01-01T00:43:29;16.00;92.50
72883;DHT22;61017;37.812;-122.286;2023-01-01T00:45:19;16.10;92.30
72883;DHT22;61017;37.812;-122.286;2023-01-01T00:47:10;16.10;92.20
72883;DHT22;61017;37.812;-122.286;2023-01-01T00:49:00;16.10;92.20
72883;DHT22;61017;37.812;-122.286;2023-01-01T00:50:51;16.20;92.10
72883;DHT22;61017;37.812;-122.286;2023-01-01T00:52:41;16.10;91.70
72883;DHT22;61017;37.812;-122.286;2023-01-01T00:54:31;16.20;92.20
72883;DHT22;61017;37.812;-122.286;2023-01-01T00:56:21;16.10;91.90
72883;DHT22;61017;37.812;-122.286;2023-01-01T00:58:11;16.20;92.40
72883;DHT22;61017;37.812;-122.286;2023-01-01T01:00:02;16.20;91.90
72883;DHT22;61017;37.812;-122.286;2023-01-01T01:01:52;16.20;92.10
72883;DHT22;61017;37.812;-122.286;2023-01-01T01:03:42;16.30;92.50
72883;DHT22;61017;37.812;-122.286;2023-01-01T01:05:33;16.20;92.10
72883;DHT22;61017;37.812;-122.286;2023-01-01T01:07:23;16.10;92.30
72883;DHT22;61017;37.812;-122.286;2023-01-01T01:09:13;16.10;93.00
72883;DHT22;61017;37.812;-122.286;2023-01-01T01:11:17;16.10;92.90
72883;DHT22;61017;37.812;-122.286;2023-01-01T01:13:08;16.10;93.10
72883;DHT22;61017;37.812;-122.286;2023-01-01T01:14:58;16.10;92.90
72883;DHT22;61017;37.812;-122.286;2023-01-01T01:16:49;16.10;93.10
72883;DHT22;61017;37.812;-122.286;2023-01-01T01:18:39;16.10;93.20
72883;DHT22;61017;37.812;-122.286;2023-01-01T01:20:29;16.10;93.40
72883;DHT22;61017;37.812;-122.286;2023-01-01T01:22:20;16.10;93.20
72883;DHT22;61017;37.812;-122.286;2023-01-01T01:24:10;16.20;93.50
72883;DHT22;61017;37.812;-122.286;2023-01-01T01:26:28;16.20;93.30
72883;DHT22;61017;37.812;-122.286;2023-01-01T01:28:18;16.30;93.20
72883;DHT22;61017;37.812;-122.286;2023-01-01T01:30:08;16.30;93.10
72883;DHT22;61017;37.812;-122.286;2023-01-01T01:31:58;16.30;93.00
72883;DHT22;61017;37.812;-122.286;2023-01-01T01:33:49;16.40;93.10
72883;DHT22;61017;37.812;-122.286;2023-01-01T01:35:39;16.40;93.00
72883;DHT22;61017;37.812;-122.286;2023-01-01T01:37:29;16.50;92.70
72883;DHT22;61017;37.812;-122.286;2023-01-01T01:39:19;16.50;92.90
72883;DHT22;61017;37.812;-122.286;2023-01-01T01:41:11;16.50;93.00
72883;DHT22;61017;37.812;-122.286;2023-01-01T01:43:02;16.50;93.30
72883;DHT22;61017;37.812;-122.286;2023-01-01T01:44:57;16.50;93.00
72883;DHT22;61017;37.812;-122.286;2023-01-01T01:46:48;16.60;92.90
72883;DHT22;61017;37.812;-122.286;2023-01-01T01:48:44;16.60;92.80
72883;DHT22;61017;37.812;-122.286;2023-01-01T01:50:38;16.60;92.80
72883;DHT22;61017;37.812;-122.286;2023-01-01T01:52:28;16.50;92.20
72883;DHT22;61017;37.812;-122.286;2023-01-01T01:54:22;16.50;92.70
72883;DHT22;61017;37.812;-122.286;2023-01-01T01:56:17;16.50;92.70
72883;DHT22;61017;37.812;-122.286;2023-01-01T01:58:10;16.60;92.70
72883;DHT22;61017;37.812;-122.286;2023-01-01T02:00:01;16.60;93.00
72883;DHT22;61017;37.812;-122.286;2023-01-01T02:01:52;16.60;92.80
72883;DHT22;61017;37.812;-122.286;2023-01-01T02:03:54;16.60;92.90
72883;DHT22;61017;37.812;-122.286;2023-01-01T02:05:46;16.70;93.20
72883;DHT22;61017;37.812;-122.286;2023-01-01T02:07:38;16.70;93.20
72883;DHT22;61017;37.812;-122.286;2023-01-01T02:09:28;16.70;92.90
72883;DHT22;61017;37.812;-122.286;2023-01-01T02:11:19;16.70;93.20
72883;DHT22;61017;37.812;-122.286;2023-01-01T02:13:09;16.70;93.10
72883;DHT22;61017;37.812;-122.286;2023-01-01T02:15:00;16.70;92.90
72883;DHT22;61017;37.812;-122.286;2023-01-01T02:17:10;16.70;92.60
72883;DHT22;61017;37.812;-122.286;2023-01-01T02:21:19;16.60;92.40
72883;DHT22;61017;37.812;-122.286;2023-01-01T02:23:37;16.60;92.30
72883;DHT22;61017;37.812;-122.286;2023-01-01T02:28:09;16.70;92.50
72883;DHT22;61017;37.812;-122.286;2023-01-01T02:30:07;16.70;92.10
72883;DHT22;61017;37.812;-122.286;2023-01-01T02:33:54;16.60;92.00
72883;DHT22;61017;37.812;-122.286;2023-01-01T02:35:59;16.60;92.20
72883;DHT22;61017;37.812;-122.286;2023-01-01T02:37:53;16.60;92.10
72883;DHT22;61017;37.812;-122.286;2023-01-01T02:39:53;16.60;93.70
72883;DHT22;61017;37.812;-122.286;2023-01-01T02:41:47;16.60;93.10
72883;DHT22;61017;37.812;-122.286;2023-01-01T02:43:38;16.60;93.70
72883;DHT22;61017;37.812;-122.286;2023-01-01T02:45:28;16.60;93.90
72883;DHT22;61017;37.812;-122.286;2023-01-01T02:47:19;16.60;93.60
72883;DHT22;61017;37.812;-122.286;2023-01-01T02:49:10;16.60;93.40
72883;DHT22;61017;37.812;-122.286;2023-01-01T02:51:07;16.60;94.10
72883;DHT22;61017;37.812;-122.286;2023-01-01T02:53:33;16.70;93.80
72883;DHT22;61017;37.812;-122.286;2023-01-01T02:55:47;16.70;93.90
72883;DHT22;61017;37.812;-122.286;2023-01-01T02:57:52;16.70;93.80
72883;DHT22;61017;37.812;-122.286;2023-01-01T03:00:13;16.80;93.60
72883;DHT22;61017;37.812;-122.286;2023-01-01T03:04:21;16.80;93.50
72883;DHT22;61017;37.812;-122.286;2023-01-01T03:06:37;16.80;92.50
72883;DHT22;61017;37.812;-122.286;2023-01-01T03:12:49;16.80;93.40
72883;DHT22;61017;37.812;-122.286;2023-01-01T03:14:47;16.80;93.80
72883;DHT22;61017;37.812;-122.286;2023-01-01T03:16:49;16.80;93.10
72883;DHT22;61017;37.812;-122.286;2023-01-01T03:20:53;16.70;93.40
72883;DHT22;61017;37.812;-122.286;2023-01-01T03:22:45;16.70;93.90
72883;DHT22;61017;37.812;-122.286;2023-01-01T03:24:53;16.70;93.90
72883;DHT22;61017;37.812;-122.286;2023-01-01T03:26:47;16.70;94.20
72883;DHT22;61017;37.812;-122.286;2023-01-01T03:28:49;16.80;94.00
72883;DHT22;61017;37.812;-122.286;2023-01-01T03:30:42;16.80;93.90
72883;DHT22;61017;37.812;-122.286;2023-01-01T03:32:41;16.80;93.10
72883;DHT22;61017;37.812;-122.286;2023-01-01T03:34:44;16.80;93.90
72883;DHT22;61017;37.812;-122.286;2023-01-01T03:36:42;16.80;93.80
72883;DHT22;61017;37.812;-122.286;2023-01-01T03:38:44;16.80;93.60
72883;DHT22;61017;37.812;-122.286;2023-01-01T03:40:37;16.80;94.00
72883;DHT22;61017;37.812;-122.286;2023-01-01T03:42:35;16.90;94.00
72883;DHT22;61017;37.812;-122.286;2023-01-01T03:44:32;16.90;93.80
72883;DHT22;61017;37.812;-122.286;2023-01-01T03:46:28;16.90;93.80
72883;DHT22;61017;37.812;-122.286;2023-01-01T03:48:19;16.90;93.50
72883;DHT22;61017;37.812;-122.286;2023-01-01T03:50:09;16.90;93.20
72883;DHT22;61017;37.812;-122.286;2023-01-01T03:56:40;16.80;93.40
72883;DHT22;61017;37.812;-122.286;2023-01-01T04:01:08;16.90;93.50
72883;DHT22;61017;37.812;-122.286;2023-01-01T04:05:00;16.90;93.10
72883;DHT22;61017;37.812;-122.286;2023-01-01T04:06:53;17.00;93.40
72883;DHT22;61017;37.812;-122.286;2023-01-01T04:08:45;17.00;93.40
72883;DHT22;61017;37.812;-122.286;2023-01-01T04:10:38;17.00;93.10
72883;DHT22;61017;37.812;-122.286;2023-01-01T04:12:29;17.00;93.10
72883;DHT22;61017;37.812;-122.286;2023-01-01T04:14:38;17.00;92.90
72883;DHT22;61017;37.812;-122.286;2023-01-01T04:16:28;17.00;92.80
72883;DHT22;61017;37.812;-122.286;2023-01-01T04:18:18;16.90;92.50
72883;DHT22;61017;37.812;-122.286;2023-01-01T04:20:09;16.90;92.60
72883;DHT22;61017;37.812;-122.286;2023-01-01T04:21:59;16.90;92.70
72883;DHT22;61017;37.812;-122.286;2023-01-01T04:23:50;16.90;92.60
72883;DHT22;61017;37.812;-122.286;2023-01-01T04:25:40;16.90;92.90
72883;DHT22;61017;37.812;-122.286;2023-01-01T04:27:30;16.90;93.00
72883;DHT22;61017;37.812;-122.286;2023-01-01T04:29:20;16.90;93.10
72883;DHT22;61017;37.812;-122.286;2023-01-01T04:31:10;17.00;93.10
72883;DHT22;61017;37.812;-122.286;2023-01-01T04:33:00;17.00;93.10
72883;DHT22;61017;37.812;-122.286;2023-01-01T04:34:50;17.00;93.00
72883;DHT22;61017;37.812;-122.286;2023-01-01T04:37:01;17.00;92.90
72883;DHT22;61017;37.812;-122.286;2023-01-01T04:38:51;17.10;92.90
72883;DHT22;61017;37.812;-122.286;2023-01-01T04:40:41;17.10;92.80
72883;DHT22;61017;37.812;-122.286;2023-01-01T04:42:31;17.10;92.90
72883;DHT22;61017;37.812;-122.286;2023-01-01T04:44:22;17.10;92.80
72883;DHT22;61017;37.812;-122.286;2023-01-01T04:46:12;17.10;92.70
72883;DHT22;61017;37.812;-122.286;2023-01-01T04:48:05;17.10;92.70
72883;DHT22;61017;37.812;-122.286;2023-01-01T04:49:56;17.10;92.70
72883;DHT22;61017;37.812;-122.286;2023-01-01T04:51:46;17.20;92.70
72883;DHT22;61017;37.812;-122.286;2023-01-01T04:53:36;17.20;92.70
72883;DHT22;61017;37.812;-122.286;2023-01-01T04:55:26;17.20;92.80
72883;DHT22;61017;37.812;-122.286;2023-01-01T04:57:16;17.30;92.90
72883;DHT22;61017;37.812;-122.286;2023-01-01T04:59:06;17.30;92.90
72883;DHT22;61017;37.812;-122.286;2023-01-01T05:00:56;17.30;93.00
72883;DHT22;61017;37.812;-122.286;2023-01-01T05:02:46;17.30;93.10
72883;DHT22;61017;37.812;-122.286;2023-01-01T05:04:36;17.30;93.10
72883;DHT22;61017;37.812;-122.286;2023-01-01T05:06:26;17.30;93.20
72883;DHT22;61017;37.812;-122.286;2023-01-01T05:08:16;17.30;93.10
72883;DHT22;61017;37.812;-122.286;2023-01-01T05:10:07;17.30;93.00
72883;DHT22;61017;37.812;-122.286;2023-01-01T05:11:57;17.30;93.30
72883;DHT22;61017;37.812;-122.286;2023-01-01T05:13:49;17.30;93.40
72883;DHT22;61017;37.812;-122.286;2023-01-01T05:15:39;17.30;93.40
72883;DHT22;61017;37.812;-122.286;2023-01-01T05:17:30;17.30;93.50
72883;DHT22;61017;37.812;-122.286;2023-01-01T05:19:20;17.30;93.50
72883;DHT22;61017;37.812;-122.286;2023-01-01T05:21:22;17.30;93.50
72883;DHT22;61017;37.812;-122.286;2023-01-01T05:23:14;17.30;93.50
72883;DHT22;61017;37.812;-122.286;2023-01-01T05:25:04;17.30;93.60
72883;DHT22;61017;37.812;-122.286;2023-01-01T05:26:54;17.30;93.70
72883;DHT22;61017;37.812;-122.286;2023-01-01T05:28:45;17.30;93.70
72883;DHT22;61017;37.812;-122.286;2023-01-01T05:30:39;17.30;93.70
72883;DHT22;61017;37.812;-122.286;2023-01-01T05:32:29;17.30;93.70
72883;DHT22;61017;37.812;-122.286;2023-01-01T05:34:19;17.30;93.80
72883;DHT22;61017;37.812;-122.286;2023-01-01T05:36:14;17.30;93.80
72883;DHT22;61017;37.812;-122.286;2023-01-01T05:38:04;17.30;93.80
72883;DHT22;61017;37.812;-122.286;2023-01-01T05:39:55;17.30;93.80
72883;DHT22;61017;37.812;-122.286;2023-01-01T05:41:45;17.30;93.80
72883;DHT22;61017;37.812;-122.286;2023-01-01T05:43:35;17.30;93.90
72883;DHT22;61017;37.812;-122.286;2023-01-01T05:45:25;17.30;93.90
72883;DHT22;61017;37.812;-122.286;2023-01-01T05:47:15;17.30;93.90
72883;DHT22;61017;37.812;-122.286;2023-01-01T05:49:12;17.30;93.90
72883;DHT22;61017;37.812;-122.286;2023-01-01T05:51:06;17.30;93.90
72883;DHT22;61017;37.812;-122.286;2023-01-01T05:52:57;17.30;93.90
72883;DHT22;61017;37.812;-122.286;2023-01-01T05:54:47;17.30;93.90
72883;DHT22;61017;37.812;-122.286;2023-01-01T05:56:36;17.30;93.90
72883;DHT22;61017;37.812;-122.286;2023-01-01T05:58:27;17.30;93.90
72883;DHT22;61017;37.812;-122.286;2023-01-01T06:00:18;17.30;93.90
72883;DHT22;61017;37.812;-122.286;2023-01-01T06:02:09;17.20;93.90
72883;DHT22;61017;37.812;-122.286;2023-01-01T06:03:59;17.30;93.90
72883;DHT22;61017;37.812;-122.286;2023-01-01T06:05:49;17.20;93.80
72883;DHT22;61017;37.812;-122.286;2023-01-01T06:07:39;17.30;93.90
72883;DHT22;61017;37.812;-122.286;2023-01-01T06:09:29;17.20;93.90
72883;DHT22;61017;37.812;-122.286;2023-01-01T06:11:20;17.20;93.90
72883;DHT22;61017;37.812;-122.286;2023-01-01T06:13:10;17.20;93.90
72883;DHT22;61017;37.812;-122.286;2023-01-01T06:15:00;17.20;93.80
72883;DHT22;61017;37.812;-122.286;2023-01-01T06:16:50;17.20;93.80
72883;DHT22;61017;37.812;-122.286;2023-01-01T06:18:40;17.20;93.80
72883;DHT22;61017;37.812;-122.286;2023-01-01T06:20:30;17.20;93.90
72883;DHT22;61017;37.812;-122.286;2023-01-01T06:22:20;17.20;93.90
72883;DHT22;61017;37.812;-122.286;2023-01-01T06:24:10;17.20;94.00
72883;DHT22;61017;37.812;-122.286;2023-01-01T06:26:13;17.20;93.90
72883;DHT22;61017;37.812;-122.286;2023-01-01T06:28:03;17.20;93.90
72883;DHT22;61017;37.812;-122.286;2023-01-01T06:29:54;17.20;94.00
72883;DHT22;61017;37.812;-122.286;2023-01-01T06:31:44;17.20;94.00
72883;DHT22;61017;37.812;-122.286;2023-01-01T06:33:34;17.20;94.00
72883;DHT22;61017;37.812;-122.286;2023-01-01T06:35:24;17.20;94.00
72883;DHT22;61017;37.812;-122.286;2023-01-01T06:37:14;17.20;94.10
72883;DHT22;61017;37.812;-122.286;2023-01-01T06:39:05;17.20;94.00
72883;DHT22;61017;37.812;-122.286;2023-01-01T06:41:02;17.20;94.00
72883;DHT22;61017;37.812;-122.286;2023-01-01T06:42:53;17.20;94.00
72883;DHT22;61017;37.812;-122.286;2023-01-01T06:44:42;17.20;94.00
72883;DHT22;61017;37.812;-122.286;2023-01-01T06:46:34;17.20;94.00
72883;DHT22;61017;37.812;-122.286;2023-01-01T06:48:24;17.20;94.00
72883;DHT22;61017;37.812;-122.286;2023-01-01T06:50:14;17.20;93.90
72883;DHT22;61017;37.812;-122.286;2023-01-01T06:52:04;17.20;94.00
72883;DHT22;61017;37.812;-122.286;2023-01-01T06:53:57;17.20;93.90
72883;DHT22;61017;37.812;-122.286;2023-01-01T06:55:48;17.10;93.90
72883;DHT22;61017;37.812;-122.286;2023-01-01T06:57:38;17.10;93.80
72883;DHT22;61017;37.812;-122.286;2023-01-01T06:59:28;17.10;93.70
72883;DHT22;61017;37.812;-122.286;2023-01-01T07:01:20;17.10;93.70
72883;DHT22;61017;37.812;-122.286;2023-01-01T07:03:11;17.10;93.80
72883;DHT22;61017;37.812;-122.286;2023-01-01T07:05:01;17.10;93.80
72883;DHT22;61017;37.812;-122.286;2023-01-01T07:06:51;17.10;93.70
72883;DHT22;61017;37.812;-122.286;2023-01-01T07:08:41;17.10;93.70
